»·PEaware :: SKV7663 CYYZ-KDFW

SKV7663 :: CYYZ-KDFW

FLIGHT INFORMATION

Flight Status: Arrived
Operator:
Skyways
More flights by this operator :: More flights under this callsign
Pilot: Nigam P. (15980)
Aircraft: EMBRAER ERJ-145
(E145)
More flights by this aircraft type
Origin: CYYZ Toronto/Pearson Intl
Canada
Destination: KDFW Dallas-Ft Worth Intl
United States
More flights between these airports :: More routes between these airports
Route: GOPUP2 HOCKE FNT J94 OBK MZV IRK MCI PER IRW IBAKE VKTRY2
File this flight plan on PilotEdge
Remarks: RMK / POWERED BY SIMBRIEF
Altitude:
(Current/Filed)
30,000ft
Speed:
(Current/Filed)
445kts
Departed: 08-Jul-17 07:32 PM
Arrived: 08-Jul-17 10:40 PM
Distance/Time
Traveled:
1041nm/3:08
Distance/Time
To Go:
Arrived

Flight Plot

Page will automatically refresh every two minutes.

Flight plan parsing failed; only flown route is shown


Map Options




Map Legend


Flown Route
Filed Route
Departure Airport
Arrival Airport
Navaid (VOR, NDB)
Fix

Horizontal Profiles

Position Reports

Time Latitude Longitude Heading Altitude Ground
Speed
08-Jul-17 19:27 43.685312 -79.624510 137 580ft 0kts
08-Jul-17 19:28 43.685312 -79.624510 137 580ft 0kts
08-Jul-17 19:29 43.685312 -79.624510 137 580ft 0kts
08-Jul-17 19:30 43.685312 -79.624510 137 580ft 0kts
08-Jul-17 19:31 43.685799 -79.625121 137 580ft 2kts
08-Jul-17 19:32 43.685521 -79.625780 225 580ft 13kts
08-Jul-17 19:33 43.680395 -79.623236 137 580ft 37kts
08-Jul-17 19:34 43.671227 -79.611539 84 580ft 24kts
08-Jul-17 19:35 43.677518 -79.602532 45 580ft 45kts
08-Jul-17 19:36 43.679910 -79.597814 152 580ft 0kts
08-Jul-17 19:37 43.679905 -79.597811 152 580ft 0kts
08-Jul-17 19:38 43.679901 -79.597808 152 580ft 0kts
08-Jul-17 19:39 43.671282 -79.608498 226 581ft 145kts
08-Jul-17 19:40 43.633019 -79.665195 227 2572ft 239kts
08-Jul-17 19:41 43.589468 -79.734214 233 5613ft 222kts
08-Jul-17 19:42 43.549048 -79.808681 235 3267ft 273kts
08-Jul-17 19:43 43.511777 -79.888225 238 3236ft 231kts
08-Jul-17 19:44 43.478889 -79.969178 245 6004ft 198kts
08-Jul-17 19:45 43.464554 -80.037641 266 8605ft 244kts
08-Jul-17 19:46 43.478294 -80.117826 306 12742ft 211kts
08-Jul-17 19:47 43.547361 -80.140715 18 14579ft 290kts
08-Jul-17 19:48 43.565208 -80.034241 131 15150ft 385kts
08-Jul-17 19:49 43.490720 -80.061080 272 16435ft 382kts
08-Jul-17 19:50 43.523121 -80.190884 263 21252ft 310kts
08-Jul-17 19:51 43.479417 -80.302988 237 22085ft 366kts
08-Jul-17 19:52 43.437255 -80.434289 266 23416ft 389kts
08-Jul-17 19:53 43.430311 -80.582736 264 25521ft 391kts
08-Jul-17 19:54 43.419335 -80.734023 264 27186ft 399kts
08-Jul-17 19:55 43.408597 -80.884667 264 29129ft 393kts
08-Jul-17 19:56 43.397698 -81.034526 264 29999ft 391kts
08-Jul-17 19:57 43.386645 -81.183371 264 30003ft 405kts
08-Jul-17 19:58 43.374647 -81.341987 264 30001ft 426kts
08-Jul-17 19:59 43.362098 -81.504775 264 30000ft 427kts
08-Jul-17 20:00 43.349365 -81.666960 264 30000ft 427kts
08-Jul-17 20:01 43.336404 -81.829088 264 30000ft 427kts
08-Jul-17 20:02 43.323188 -81.991475 263 30000ft 427kts
08-Jul-17 20:03 43.310257 -82.147610 263 30000ft 427kts
08-Jul-17 20:04 43.296566 -82.310139 263 29999ft 427kts
08-Jul-17 20:05 43.283157 -82.466580 263 29997ft 404kts
08-Jul-17 20:06 43.270401 -82.613057 263 29896ft 370kts
08-Jul-17 20:07 43.251146 -82.750247 248 30069ft 379kts
08-Jul-17 20:08 43.212582 -82.886422 249 29964ft 372kts
08-Jul-17 20:09 43.176163 -83.014682 249 30052ft 349kts
08-Jul-17 20:10 43.141751 -83.135535 249 29996ft 330kts
08-Jul-17 20:11 43.109248 -83.249241 249 30014ft 302kts
08-Jul-17 20:12 43.081328 -83.346332 250 29988ft 254kts
08-Jul-17 20:13 43.058206 -83.426398 250 29883ft 201kts
08-Jul-17 20:14 43.039821 -83.489949 251 29933ft 158kts
08-Jul-17 20:15 42.997233 -83.531585 176 27313ft 233kts
08-Jul-17 20:16 42.943745 -83.486983 144 27911ft 183kts
08-Jul-17 20:17 42.907618 -83.417966 62 27176ft 204kts
08-Jul-17 20:18 42.961636 -83.412581 296 26337ft 166kts
08-Jul-17 20:19 42.938774 -83.374068 2 18273ft 386kts
08-Jul-17 20:20 42.919610 -83.384284 58 16891ft 341kts
08-Jul-17 20:21 42.944609 -83.327775 176 9781ft 184kts
08-Jul-17 20:22 42.957432 -83.296780 126 7992ft 189kts
08-Jul-17 20:23 42.983522 -83.284031 42 1519ft 350kts
08-Jul-17 20:24 43.041052 -83.285543 319 5749ft 203kts
08-Jul-17 20:25 43.026309 -83.344642 247 2452ft 215kts
08-Jul-17 20:26 43.020793 -83.427077 262 2901ft 241kts
08-Jul-17 20:27 43.008409 -83.521773 256 3421ft 258kts
08-Jul-17 20:28 42.990008 -83.617404 253 3923ft 262kts
08-Jul-17 20:29 42.967833 -83.712545 251 4423ft 264kts
08-Jul-17 20:30 42.949311 -83.809793 257 4926ft 264kts
08-Jul-17 20:31 42.931527 -83.906496 257 5426ft 262kts
08-Jul-17 20:32 42.913216 -84.001903 256 5926ft 258kts
08-Jul-17 20:33 42.894719 -84.096009 255 6428ft 254kts
08-Jul-17 20:34 42.876203 -84.188749 255 6928ft 254kts
08-Jul-17 20:35 42.857308 -84.282307 255 7430ft 256kts
08-Jul-17 20:36 42.838200 -84.376129 255 7931ft 258kts
08-Jul-17 20:37 42.818825 -84.470592 255 8431ft 260kts
08-Jul-17 20:38 42.799128 -84.565984 255 8933ft 262kts
08-Jul-17 20:39 42.779122 -84.661665 255 9433ft 264kts
08-Jul-17 20:40 42.758873 -84.757944 254 9934ft 266kts
08-Jul-17 20:41 42.738327 -84.855171 254 10435ft 268kts
08-Jul-17 20:42 42.720245 -84.940364 254 10873ft 269kts
08-Jul-17 20:43 42.696657 -85.050979 254 11436ft 272kts
08-Jul-17 20:44 42.675398 -85.150171 254 11938ft 273kts
08-Jul-17 20:45 42.653921 -85.249612 254 12438ft 275kts
08-Jul-17 20:46 42.632157 -85.349751 254 12939ft 277kts
08-Jul-17 20:47 42.610068 -85.450909 254 13441ft 280kts
08-Jul-17 20:48 42.587801 -85.552402 254 13941ft 282kts
08-Jul-17 20:49 42.565284 -85.654577 254 14441ft 284kts
08-Jul-17 20:50 42.542422 -85.757823 254 14943ft 286kts
08-Jul-17 20:51 42.519371 -85.861414 254 15443ft 288kts
08-Jul-17 20:52 42.496043 -85.965763 254 15944ft 290kts
08-Jul-17 20:53 42.472371 -86.071136 254 16445ft 293kts
08-Jul-17 20:54 42.455875 -86.179188 260 16947ft 294kts
08-Jul-17 20:55 42.442215 -86.288811 260 17447ft 297kts
08-Jul-17 20:56 42.428338 -86.399707 260 17949ft 299kts
08-Jul-17 20:57 42.414338 -86.510941 260 18449ft 301kts
08-Jul-17 20:58 42.400122 -86.623099 260 18950ft 304kts
08-Jul-17 20:59 42.385649 -86.736423 260 19452ft 306kts
08-Jul-17 21:00 42.371005 -86.850196 260 19952ft 308kts
08-Jul-17 21:01 42.356080 -86.965230 260 20454ft 311kts
08-Jul-17 21:02 42.340957 -87.080852 260 20954ft 314kts
08-Jul-17 21:03 42.325600 -87.197315 260 21454ft 316kts
08-Jul-17 21:04 42.309929 -87.315191 260 21956ft 319kts
08-Jul-17 21:05 42.293992 -87.433588 260 22456ft 322kts
08-Jul-17 21:06 42.277478 -87.552752 259 22956ft 324kts
08-Jul-17 21:07 42.260616 -87.673346 259 23458ft 327kts
08-Jul-17 21:08 42.243552 -87.794469 259 23959ft 330kts
08-Jul-17 21:09 42.226223 -87.916532 259 24459ft 333kts
08-Jul-17 21:10 42.194500 -88.034734 247 24965ft 337kts
08-Jul-17 21:11 42.157199 -88.151283 247 25465ft 340kts
08-Jul-17 21:12 42.119435 -88.268676 247 25965ft 343kts
08-Jul-17 21:13 42.081068 -88.387352 247 26467ft 346kts
08-Jul-17 21:14 42.042372 -88.506497 247 26968ft 349kts
08-Jul-17 21:15 42.003209 -88.626535 247 27468ft 352kts
08-Jul-17 21:16 41.963449 -88.747855 247 27970ft 355kts
08-Jul-17 21:17 41.923357 -88.869642 247 28470ft 358kts
08-Jul-17 21:18 41.882776 -88.992364 247 28970ft 361kts
08-Jul-17 21:19 41.841595 -89.116330 247 29472ft 364kts
08-Jul-17 21:20 41.800164 -89.240484 247 29944ft 366kts
08-Jul-17 21:21 41.758236 -89.365571 247 30000ft 369kts
08-Jul-17 21:22 41.716002 -89.490979 247 29999ft 368kts
08-Jul-17 21:23 41.673828 -89.615655 246 30000ft 368kts
08-Jul-17 21:24 41.631376 -89.740587 246 30000ft 368kts
08-Jul-17 21:25 41.588927 -89.864954 246 30000ft 368kts
08-Jul-17 21:26 41.546333 -89.989191 246 30000ft 368kts
08-Jul-17 21:27 41.503475 -90.113642 246 30000ft 368kts
08-Jul-17 21:28 41.460626 -90.237515 246 30000ft 368kts
08-Jul-17 21:29 41.417649 -90.361211 246 30000ft 368kts
08-Jul-17 21:30 41.374384 -90.485189 246 30000ft 368kts
08-Jul-17 21:31 41.331129 -90.608592 246 30000ft 368kts
08-Jul-17 21:32 41.272350 -90.720223 233 30001ft 371kts
08-Jul-17 21:33 41.208429 -90.828382 233 30000ft 371kts
08-Jul-17 21:34 41.144681 -90.935941 233 30000ft 371kts
08-Jul-17 21:35 41.080814 -91.043321 233 30000ft 371kts
08-Jul-17 21:36 41.017148 -91.149989 233 30000ft 371kts
08-Jul-17 21:37 40.951966 -91.258848 233 30003ft 388kts
08-Jul-17 21:38 40.881373 -91.376379 233 30004ft 426kts
08-Jul-17 21:39 40.805184 -91.502584 233 30001ft 445kts
08-Jul-17 21:40 40.727713 -91.630318 233 30000ft 446kts
08-Jul-17 21:41 40.650061 -91.757866 233 30000ft 446kts
08-Jul-17 21:42 40.572048 -91.885507 233 30000ft 446kts
08-Jul-17 21:43 40.494124 -92.012490 232 30000ft 446kts
08-Jul-17 21:44 40.416076 -92.139156 232 30000ft 446kts
08-Jul-17 21:45 40.337632 -92.265945 232 30000ft 446kts
08-Jul-17 21:46 40.259344 -92.391970 232 30000ft 446kts
08-Jul-17 21:47 40.180581 -92.518246 232 30001ft 453kts
08-Jul-17 21:48 40.109674 -92.654784 245 30005ft 456kts
08-Jul-17 21:49 40.062771 -92.778578 244 30000ft 457kts
08-Jul-17 21:50 39.996091 -92.952043 244 30000ft 458kts
08-Jul-17 21:51 39.938756 -93.100056 244 30000ft 458kts
08-Jul-17 21:52 39.890605 -93.223730 244 30000ft 458kts
08-Jul-17 21:53 39.832855 -93.371360 244 30000ft 458kts
08-Jul-17 21:54 39.774928 -93.518709 243 30000ft 458kts
08-Jul-17 21:55 39.716637 -93.666253 243 30000ft 458kts
08-Jul-17 21:56 39.658353 -93.813061 243 30000ft 458kts
08-Jul-17 21:57 39.599853 -93.959699 243 30000ft 458kts
08-Jul-17 21:58 39.540988 -94.106540 243 30000ft 458kts
08-Jul-17 21:59 39.482149 -94.252610 243 30000ft 458kts
08-Jul-17 22:00 39.423142 -94.398398 243 30000ft 458kts
08-Jul-17 22:01 39.363732 -94.544481 243 30000ft 458kts
08-Jul-17 22:02 39.304330 -94.689850 243 30000ft 458kts
08-Jul-17 22:03 39.217979 -94.809387 219 30003ft 465kts
08-Jul-17 22:04 39.114081 -94.909385 219 30000ft 465kts
08-Jul-17 22:05 39.011088 -95.009736 219 30000ft 465kts
08-Jul-17 22:06 38.908145 -95.110740 219 30000ft 465kts
08-Jul-17 22:07 38.805555 -95.211391 219 30000ft 465kts
08-Jul-17 22:08 38.702885 -95.311866 219 30000ft 465kts
08-Jul-17 22:09 38.599888 -95.412326 219 30000ft 465kts
08-Jul-17 22:10 38.497046 -95.512276 219 30000ft 465kts
08-Jul-17 22:11 38.394165 -95.611902 219 30000ft 465kts
08-Jul-17 22:12 38.290884 -95.711551 219 30000ft 465kts
08-Jul-17 22:13 38.187844 -95.810605 219 30000ft 465kts
08-Jul-17 22:14 38.084676 -95.909419 219 30000ft 465kts
08-Jul-17 22:15 37.981116 -96.008251 219 30000ft 465kts
08-Jul-17 22:16 37.877784 -96.106511 219 30000ft 465kts
08-Jul-17 22:17 37.774358 -96.204506 219 30000ft 465kts
08-Jul-17 22:18 37.670544 -96.302516 219 30000ft 465kts
08-Jul-17 22:19 37.566973 -96.399950 219 30000ft 465kts
08-Jul-17 22:20 37.463324 -96.497111 219 30000ft 465kts
08-Jul-17 22:21 37.359256 -96.594318 218 30000ft 465kts
08-Jul-17 22:22 37.255439 -96.690951 218 30000ft 465kts
08-Jul-17 22:23 37.151519 -96.787340 218 30000ft 465kts
08-Jul-17 22:24 37.047214 -96.883745 218 30000ft 465kts
08-Jul-17 22:25 36.943132 -96.979612 218 30000ft 465kts
08-Jul-17 22:26 36.849398 -97.065664 218 30000ft 465kts
08-Jul-17 22:27 36.756903 -97.149895 216 29999ft 465kts
08-Jul-17 22:28 35.244378 -97.623374 180 29950ft 480kts
08-Jul-17 22:29 33.399899 -97.639762 184 14092ft 353kts
08-Jul-17 22:30 33.323288 -97.570342 125 12226ft 363kts
08-Jul-17 22:31 33.270951 -97.474828 117 11020ft 321kts
08-Jul-17 22:32 33.264384 -97.373556 92 10468ft 302kts
08-Jul-17 22:33 33.261479 -97.269851 91 8117ft 321kts
08-Jul-17 22:34 33.227576 -97.174378 126 5454ft 317kts
08-Jul-17 22:35 33.184723 -97.096278 120 3788ft 263kts
08-Jul-17 22:36 33.142013 -97.041588 176 2946ft 208kts
08-Jul-17 22:37 33.099811 -97.038210 207 3114ft 182kts
08-Jul-17 22:38 33.053377 -97.050902 178 3038ft 154kts
08-Jul-17 22:39 33.011700 -97.050211 180 2368ft 143kts
08-Jul-17 22:40 32.972694 -97.051540 191 1630ft 136kts
08-Jul-17 22:41 32.935306 -97.054596 180 1106ft 135kts
08-Jul-17 22:42 32.902418 -97.054698 180 618ft 48kts
08-Jul-17 22:43 32.897529 -97.051400 104 618ft 18kts
08-Jul-17 22:44 32.895522 -97.048788 357 618ft 13kts
08-Jul-17 22:45 32.898663 -97.047608 359 618ft 14kts
08-Jul-17 22:46 32.901174 -97.045286 90 618ft 15kts
08-Jul-17 22:47 32.899943 -97.043065 182 618ft 0kts

Navigation Log

Ident Type
Flight plan parsing failed, navigation log unavailable